createdAt,value
2019-05-11T00:00:32.232Z,75
2019-05-11T00:01:32.295Z,75
2019-05-11T00:02:32.343Z,75
2019-05-11T00:03:32.407Z,74
2019-05-11T00:04:32.416Z,74
2019-05-11T00:05:32.465Z,74
2019-05-11T00:06:32.524Z,74
2019-05-11T00:07:32.569Z,74
2019-05-11T00:08:32.598Z,75
2019-05-11T00:09:32.669Z,74
2019-05-11T00:10:32.686Z,74
2019-05-11T00:11:32.714Z,74
2019-05-11T00:12:32.764Z,74
2019-05-11T00:13:32.809Z,74
2019-05-11T00:14:32.849Z,74
2019-05-11T00:15:32.893Z,74
2019-05-11T00:16:32.931Z,74
2019-05-11T00:17:32.990Z,74
2019-05-11T00:18:33.031Z,74
2019-05-11T00:19:35.529Z,74
2019-05-11T00:20:33.087Z,73
2019-05-11T00:21:33.088Z,73
2019-05-11T00:22:33.125Z,73
2019-05-11T00:23:33.174Z,73
2019-05-11T00:24:33.217Z,73
2019-05-11T00:25:33.230Z,73
2019-05-11T00:26:33.295Z,74
2019-05-11T00:27:33.334Z,74
2019-05-11T00:28:33.363Z,74
2019-05-11T00:29:33.421Z,74
2019-05-11T00:30:33.403Z,74
2019-05-11T00:31:33.423Z,74
2019-05-11T00:32:33.488Z,74
2019-05-11T00:33:33.522Z,74
2019-05-11T00:34:33.523Z,74
2019-05-11T00:35:33.546Z,74
2019-05-11T00:36:33.583Z,74
2019-05-11T00:37:33.592Z,74
2019-05-11T00:38:33.641Z,74
2019-05-11T00:39:33.686Z,74
2019-05-11T00:40:33.685Z,74
2019-05-11T00:41:33.692Z,74
2019-05-11T00:42:33.726Z,74
2019-05-11T00:43:33.745Z,74
2019-05-11T00:44:33.783Z,74
2019-05-11T00:45:33.808Z,75
2019-05-11T00:46:33.813Z,75
2019-05-11T00:47:33.830Z,75
2019-05-11T00:48:33.845Z,75
2019-05-11T00:49:33.853Z,75
2019-05-11T00:50:39.053Z,75
2019-05-11T00:51:33.853Z,75
2019-05-11T00:52:33.887Z,75
2019-05-11T00:53:33.878Z,75
2019-05-11T00:54:33.903Z,75
2019-05-11T00:55:33.883Z,75
2019-05-11T00:56:33.972Z,75
2019-05-11T00:57:33.940Z,75
2019-05-11T00:58:33.938Z,74
2019-05-11T00:59:33.924Z,74
2019-05-11T01:00:33.925Z,74
2019-05-11T01:01:33.947Z,74
2019-05-11T01:02:33.953Z,75
2019-05-11T01:03:33.965Z,75
2019-05-11T01:04:33.991Z,75
2019-05-11T01:05:33.981Z,75
2019-05-11T01:06:33.977Z,75
2019-05-11T01:07:33.979Z,75
2019-05-11T01:08:33.976Z,75
2019-05-11T01:09:34.043Z,75
2019-05-11T01:10:41.920Z,75
2019-05-11T01:11:34.108Z,75
2019-05-11T01:12:34.156Z,75
2019-05-11T01:13:34.230Z,75
2019-05-11T01:14:34.253Z,75
2019-05-11T01:15:34.313Z,75
2019-05-11T01:16:34.321Z,75
2019-05-11T01:17:34.396Z,75
2019-05-11T01:18:34.447Z,75
2019-05-11T01:19:34.580Z,75
2019-05-11T01:20:34.511Z,76
2019-05-11T01:21:34.575Z,75
2019-05-11T01:22:34.606Z,76
2019-05-11T01:23:34.692Z,76
2019-05-11T01:24:34.686Z,76
2019-05-11T01:25:34.727Z,76
2019-05-11T01:26:34.783Z,76
2019-05-11T01:27:34.842Z,77
2019-05-11T01:28:34.909Z,77
2019-05-11T01:29:34.913Z,76
2019-05-11T01:30:34.993Z,76
2019-05-11T01:31:35.010Z,75
2019-05-11T01:32:35.088Z,76
2019-05-11T01:33:35.094Z,76
2019-05-11T01:34:35.128Z,76
2019-05-11T01:35:35.139Z,75
2019-05-11T01:36:35.170Z,76
2019-05-11T01:37:35.251Z,76
2019-05-11T01:38:35.322Z,76
2019-05-11T01:39:35.352Z,76
2019-05-11T01:40:35.415Z,77
2019-05-11T01:41:35.518Z,77
2019-05-11T01:42:35.472Z,77
2019-05-11T01:43:35.658Z,77
2019-05-11T01:44:35.570Z,77
2019-05-11T01:45:35.612Z,77
2019-05-11T01:46:35.656Z,77
2019-05-11T01:47:35.688Z,77
2019-05-11T01:48:35.742Z,77
2019-05-11T01:49:35.820Z,77
2019-05-11T01:50:35.791Z,77
2019-05-11T01:51:35.860Z,77
2019-05-11T01:52:35.906Z,78
2019-05-11T01:53:35.937Z,78
2019-05-11T01:54:35.922Z,78
2019-05-11T01:55:36.032Z,78
2019-05-11T01:56:36.031Z,78
2019-05-11T01:57:36.041Z,78
2019-05-11T01:58:36.053Z,78
2019-05-11T01:59:36.067Z,78
2019-05-11T02:00:36.065Z,78
2019-05-11T02:01:36.102Z,78
2019-05-11T02:02:36.141Z,79
2019-05-11T02:03:36.204Z,79
2019-05-11T02:04:36.245Z,79
2019-05-11T02:05:36.274Z,79
2019-05-11T02:06:36.292Z,79
2019-05-11T02:07:36.290Z,78
2019-05-11T02:08:36.334Z,78
2019-05-11T02:09:36.369Z,78
2019-05-11T02:10:36.407Z,78
2019-05-11T02:11:36.537Z,78
2019-05-11T02:12:37.503Z,79
2019-05-11T02:13:36.513Z,79
2019-05-11T02:14:36.532Z,78
2019-05-11T02:15:36.572Z,79
2019-05-11T02:16:36.596Z,79
2019-05-11T02:17:36.617Z,79
2019-05-11T02:18:36.649Z,79
2019-05-11T02:19:36.646Z,79
2019-05-11T02:20:36.668Z,79
2019-05-11T02:21:36.714Z,79
2019-05-11T02:22:36.733Z,79
2019-05-11T02:23:36.747Z,79
2019-05-11T02:24:36.794Z,79
2019-05-11T02:25:36.804Z,80
2019-05-11T02:26:36.854Z,79
2019-05-11T02:27:36.864Z,79
2019-05-11T02:28:36.891Z,79
2019-05-11T02:29:36.895Z,79
2019-05-11T02:30:36.957Z,79
2019-05-11T02:31:37.209Z,80
2019-05-11T02:32:36.980Z,80
2019-05-11T02:33:37.011Z,80
2019-05-11T02:34:37.045Z,79
2019-05-11T02:35:37.069Z,80
2019-05-11T02:36:37.062Z,79
2019-05-11T02:37:37.101Z,80
2019-05-11T02:38:37.108Z,80
2019-05-11T02:39:37.145Z,80
2019-05-11T02:40:37.124Z,80
2019-05-11T02:41:37.719Z,80
2019-05-11T02:42:37.168Z,80
2019-05-11T02:43:37.150Z,80
2019-05-11T02:44:37.171Z,80
2019-05-11T02:45:37.183Z,79
2019-05-11T02:46:37.206Z,79
2019-05-11T02:47:37.220Z,79
2019-05-11T02:48:37.206Z,79
2019-05-11T02:49:37.206Z,79
2019-05-11T02:50:37.208Z,79
2019-05-11T02:51:37.203Z,79
2019-05-11T02:52:37.222Z,79
2019-05-11T02:53:37.233Z,79
2019-05-11T02:54:37.243Z,79
2019-05-11T02:55:37.238Z,79
2019-05-11T02:56:37.264Z,79
2019-05-11T02:57:37.338Z,79
2019-05-11T02:58:37.382Z,79
2019-05-11T02:59:37.455Z,79
2019-05-11T03:00:37.521Z,79
2019-05-11T03:01:37.488Z,79
2019-05-11T03:02:37.544Z,79
2019-05-11T03:03:37.572Z,80
2019-05-11T03:04:37.633Z,80
2019-05-11T03:05:37.691Z,80
2019-05-11T03:06:37.752Z,80
2019-05-11T03:07:37.785Z,80
2019-05-11T03:08:37.829Z,80
2019-05-11T03:09:37.859Z,80
2019-05-11T03:10:37.941Z,79
2019-05-11T03:11:53.921Z,79
2019-05-11T03:12:38.024Z,79
2019-05-11T03:13:38.181Z,79
2019-05-11T03:14:38.140Z,79
2019-05-11T03:15:38.203Z,79
2019-05-11T03:16:38.254Z,79
2019-05-11T03:17:38.266Z,80
2019-05-11T03:18:38.284Z,80
2019-05-11T03:19:38.332Z,80
2019-05-11T03:20:38.370Z,80
2019-05-11T03:21:39.502Z,80
2019-05-11T03:22:38.494Z,79
2019-05-11T03:23:38.524Z,79
2019-05-11T03:24:38.557Z,79
2019-05-11T03:25:38.604Z,78
2019-05-11T03:26:38.753Z,79
2019-05-11T03:27:38.703Z,79
2019-05-11T03:28:38.761Z,79
2019-05-11T03:29:38.804Z,79
2019-05-11T03:30:38.817Z,79
2019-05-11T03:31:38.812Z,79
2019-05-11T03:32:38.886Z,79
2019-05-11T03:33:38.893Z,79
2019-05-11T03:34:38.960Z,79
2019-05-11T03:35:38.981Z,80
2019-05-11T03:36:38.994Z,79
2019-05-11T03:37:39.063Z,79
2019-05-11T03:38:39.058Z,79
2019-05-11T03:39:39.100Z,79
2019-05-11T03:40:39.151Z,80
2019-05-11T03:41:39.190Z,80
2019-05-11T03:42:39.242Z,80
2019-05-11T03:43:39.262Z,81
2019-05-11T03:44:39.306Z,80
2019-05-11T03:45:39.350Z,80
2019-05-11T03:46:39.336Z,80
2019-05-11T03:47:39.394Z,80
2019-05-11T03:48:39.423Z,80
2019-05-11T03:49:39.474Z,81
2019-05-11T03:50:39.520Z,81
2019-05-11T03:51:39.483Z,81
2019-05-11T03:52:39.532Z,81
2019-05-11T03:53:39.563Z,81
2019-05-11T03:54:39.578Z,81
2019-05-11T03:55:39.603Z,81
2019-05-11T03:56:39.652Z,81
2019-05-11T03:57:39.706Z,80
2019-05-11T03:58:39.716Z,81
2019-05-11T03:59:39.772Z,82
2019-05-11T04:00:39.783Z,82
2019-05-11T04:01:39.907Z,81
2019-05-11T04:02:39.857Z,81
2019-05-11T04:03:39.870Z,80
2019-05-11T04:04:39.963Z,80
2019-05-11T04:05:39.918Z,80
2019-05-11T04:06:39.964Z,80
2019-05-11T04:07:39.981Z,80
2019-05-11T04:08:40.085Z,80
2019-05-11T04:09:40.037Z,80
2019-05-11T04:10:40.051Z,80
2019-05-11T04:11:40.075Z,80
2019-05-11T04:12:40.117Z,80
2019-05-11T04:13:40.119Z,80
2019-05-11T04:14:40.133Z,80
2019-05-11T04:15:40.161Z,80
2019-05-11T04:16:40.146Z,80
2019-05-11T04:17:40.162Z,80
2019-05-11T04:18:40.193Z,80
2019-05-11T04:19:40.200Z,80
2019-05-11T04:20:40.203Z,80
2019-05-11T04:21:40.258Z,80
2019-05-11T04:22:40.237Z,80
2019-05-11T04:23:40.249Z,80
2019-05-11T04:24:40.272Z,80
2019-05-11T04:25:40.281Z,80
2019-05-11T04:26:40.279Z,80
2019-05-11T04:27:40.276Z,80
2019-05-11T04:28:40.316Z,80
2019-05-11T04:29:40.311Z,81
2019-05-11T04:30:40.313Z,81
2019-05-11T04:31:40.332Z,81
2019-05-11T04:32:40.314Z,81
2019-05-11T04:33:40.325Z,81
2019-05-11T04:34:40.321Z,81
2019-05-11T04:35:40.309Z,81
2019-05-11T04:36:40.328Z,81
2019-05-11T04:37:40.312Z,82
2019-05-11T04:38:40.403Z,81
2019-05-11T04:39:40.414Z,81
2019-05-11T04:40:40.501Z,81
2019-05-11T04:41:40.549Z,81
2019-05-11T04:42:53.816Z,82
2019-05-11T04:43:40.693Z,82
2019-05-11T04:44:40.708Z,82
2019-05-11T04:45:40.720Z,83
2019-05-11T04:46:40.796Z,83
2019-05-11T04:47:40.888Z,83
2019-05-11T04:48:40.889Z,83
2019-05-11T04:49:40.935Z,83
2019-05-11T04:50:40.924Z,83
2019-05-11T04:51:40.973Z,83
2019-05-11T04:52:41.015Z,83
2019-05-11T04:53:41.078Z,83
2019-05-11T04:54:41.115Z,83
2019-05-11T04:55:41.186Z,82
2019-05-11T04:56:41.234Z,82
2019-05-11T04:57:41.296Z,83
2019-05-11T04:58:41.352Z,83
2019-05-11T04:59:41.374Z,82
2019-05-11T05:00:41.410Z,82
2019-05-11T05:01:41.476Z,82
2019-05-11T05:02:41.516Z,82
2019-05-11T05:03:47.249Z,81
2019-05-11T05:04:41.598Z,81
2019-05-11T05:05:41.651Z,81
2019-05-11T05:06:41.707Z,81
2019-05-11T05:07:47.538Z,81
2019-05-11T05:08:41.787Z,81
2019-05-11T05:09:42.360Z,81
2019-05-11T05:10:41.876Z,80
2019-05-11T05:11:41.932Z,80
2019-05-11T05:12:50.349Z,80
2019-05-11T05:13:41.998Z,81
2019-05-11T05:14:42.056Z,82
2019-05-11T05:15:42.116Z,81
2019-05-11T05:16:42.160Z,80
2019-05-11T05:17:42.180Z,80
2019-05-11T05:18:42.246Z,79
2019-05-11T05:19:42.246Z,78
2019-05-11T05:20:43.872Z,77
2019-05-11T05:21:42.371Z,77
2019-05-11T05:22:42.410Z,77
2019-05-11T05:23:42.391Z,77
2019-05-11T05:24:42.461Z,77
2019-05-11T05:25:42.573Z,77
2019-05-11T05:26:42.571Z,77
2019-05-11T05:27:42.598Z,77
2019-05-11T05:28:45.477Z,78
2019-05-11T05:29:42.756Z,77
2019-05-11T05:30:42.692Z,77
2019-05-11T05:31:42.730Z,76
2019-05-11T05:32:42.761Z,76
2019-05-11T05:33:42.803Z,75
2019-05-11T05:34:42.837Z,74
2019-05-11T05:35:42.879Z,75
2019-05-11T05:36:42.933Z,75
2019-05-11T05:37:42.968Z,75
2019-05-11T05:38:43.003Z,75
2019-05-11T05:39:43.041Z,75
2019-05-11T05:40:43.086Z,74
2019-05-11T05:41:43.134Z,74
2019-05-11T05:42:43.177Z,73
2019-05-11T05:43:43.203Z,73
2019-05-11T05:44:43.239Z,73
2019-05-11T05:45:43.232Z,73
2019-05-11T05:46:43.267Z,74
2019-05-11T05:47:43.287Z,73
2019-05-11T05:48:43.314Z,74
2019-05-11T05:49:43.338Z,75
2019-05-11T05:50:43.333Z,75
2019-05-11T05:51:43.408Z,75
2019-05-11T05:52:43.371Z,75
2019-05-11T05:53:43.423Z,74
2019-05-11T05:54:43.419Z,74
2019-05-11T05:55:43.420Z,73
2019-05-11T05:56:43.459Z,73
2019-05-11T05:57:43.480Z,73
2019-05-11T05:58:43.506Z,73
2019-05-11T05:59:43.550Z,73
2019-05-11T06:00:43.556Z,72
2019-05-11T06:01:43.671Z,72
2019-05-11T06:02:43.614Z,71
2019-05-11T06:03:43.627Z,72
2019-05-11T06:04:43.658Z,71
2019-05-11T06:05:43.720Z,71
2019-05-11T06:06:43.759Z,69
2019-05-11T06:07:43.743Z,70
2019-05-11T06:08:43.772Z,70
2019-05-11T06:09:43.789Z,70
2019-05-11T06:10:43.795Z,70
2019-05-11T06:11:43.827Z,71
2019-05-11T06:12:43.848Z,71
2019-05-11T06:13:45.728Z,70
2019-05-11T06:14:43.890Z,69
2019-05-11T06:15:43.908Z,69
2019-05-11T06:16:43.927Z,69
2019-05-11T06:17:43.960Z,69
2019-05-11T06:18:43.937Z,69
2019-05-11T06:19:43.951Z,70
2019-05-11T06:20:43.966Z,70
2019-05-11T06:21:44.017Z,69
2019-05-11T06:22:44.029Z,69
2019-05-11T06:23:44.039Z,69
2019-05-11T06:24:44.053Z,68
2019-05-11T06:25:44.188Z,68
2019-05-11T06:26:44.078Z,68
2019-05-11T06:27:44.140Z,68
2019-05-11T06:28:44.083Z,67
2019-05-11T06:29:44.081Z,67
2019-05-11T06:30:44.113Z,68
2019-05-11T06:31:44.105Z,69
2019-05-11T06:32:44.126Z,68
2019-05-11T06:33:44.170Z,67
2019-05-11T06:34:44.154Z,67
2019-05-11T06:35:44.128Z,68
2019-05-11T06:36:44.132Z,68
2019-05-11T06:37:44.178Z,68
2019-05-11T06:38:44.140Z,66
2019-05-11T06:39:44.172Z,67
2019-05-11T06:40:44.224Z,67
2019-05-11T06:41:44.290Z,67
2019-05-11T06:42:44.302Z,67
2019-05-11T06:43:59.455Z,67
2019-05-11T06:44:44.392Z,67
2019-05-11T06:45:44.404Z,67
2019-05-11T06:46:44.477Z,67
2019-05-11T06:47:44.573Z,68
2019-05-11T06:48:44.573Z,68
2019-05-11T06:49:44.625Z,68
2019-05-11T06:50:44.727Z,67
2019-05-11T06:51:44.740Z,67
2019-05-11T06:52:44.779Z,66
2019-05-11T06:53:44.800Z,65
2019-05-11T06:54:44.814Z,64
2019-05-11T06:55:44.873Z,65
2019-05-11T06:56:45.979Z,66
2019-05-11T06:57:44.988Z,65
2019-05-11T06:58:45.627Z,65
2019-05-11T06:59:45.113Z,65
2019-05-11T07:00:45.269Z,66
2019-05-11T07:01:46.292Z,66
2019-05-11T07:02:45.276Z,66
2019-05-11T07:03:45.342Z,66
2019-05-11T07:04:45.395Z,65
2019-05-11T07:05:45.465Z,65
2019-05-11T07:06:45.486Z,65
2019-05-11T07:07:47.755Z,65
2019-05-11T07:08:45.612Z,66
2019-05-11T07:09:45.648Z,66
2019-05-11T07:10:45.677Z,66
2019-05-11T07:11:45.750Z,66
2019-05-11T07:12:45.779Z,66
2019-05-11T07:13:45.835Z,66
2019-05-11T07:14:45.907Z,66
2019-05-11T07:15:45.918Z,65
2019-05-11T07:16:45.964Z,65
2019-05-11T07:17:46.022Z,64
2019-05-11T07:18:46.050Z,65
2019-05-11T07:19:47.563Z,65
2019-05-11T07:20:50.322Z,65
2019-05-11T07:21:46.190Z,66
2019-05-11T07:22:46.228Z,67
2019-05-11T07:23:46.274Z,68
2019-05-11T07:24:46.312Z,69
2019-05-11T07:25:46.355Z,69
2019-05-11T07:26:46.391Z,68
2019-05-11T07:27:46.406Z,69
2019-05-11T07:28:46.411Z,69
2019-05-11T07:29:46.450Z,70
2019-05-11T07:30:46.512Z,70
2019-05-11T07:31:46.529Z,71
2019-05-11T07:32:48.134Z,71
2019-05-11T07:33:48.588Z,71
2019-05-11T07:34:48.636Z,70
2019-05-11T07:35:47.808Z,71
2019-05-11T07:36:47.667Z,71
2019-05-11T07:37:47.841Z,72
2019-05-11T07:38:48.689Z,73
2019-05-11T07:39:48.702Z,73
2019-05-11T07:40:47.623Z,74
2019-05-11T07:41:47.780Z,75
2019-05-11T07:42:48.498Z,75
2019-05-11T07:43:48.435Z,74
2019-05-11T07:44:48.076Z,74
2019-05-11T07:45:47.939Z,74
2019-05-11T07:46:48.260Z,74
2019-05-11T07:47:48.515Z,74
2019-05-11T07:48:47.886Z,76
2019-05-11T07:49:48.829Z,77
2019-05-11T07:50:47.899Z,78
2019-05-11T07:51:48.091Z,79
2019-05-11T07:52:48.253Z,80
2019-05-11T07:53:48.584Z,80
2019-05-11T07:54:51.938Z,81
2019-05-11T07:55:48.447Z,82
2019-05-11T07:56:47.879Z,82
2019-05-11T07:57:48.091Z,83
2019-05-11T07:58:48.049Z,83
2019-05-11T07:59:48.601Z,83
2019-05-11T08:00:48.818Z,84
2019-05-11T08:01:47.915Z,84
2019-05-11T08:02:47.970Z,84
2019-05-11T08:03:48.238Z,84
2019-05-11T08:04:48.123Z,84
2019-05-11T08:05:47.897Z,84
2019-05-11T08:06:47.887Z,84
2019-05-11T08:07:48.108Z,85
2019-05-11T08:08:48.973Z,85
2019-05-11T08:09:48.246Z,85
2019-05-11T08:10:48.243Z,85
2019-05-11T08:11:47.850Z,86
2019-05-11T08:12:48.033Z,86
2019-05-11T08:13:48.045Z,85
2019-05-11T08:14:57.424Z,86
2019-05-11T08:15:48.784Z,86
2019-05-11T08:16:48.013Z,86
2019-05-11T08:17:48.657Z,86
2019-05-11T08:18:48.090Z,87
2019-05-11T08:19:47.674Z,86
2019-05-11T08:20:47.914Z,86
2019-05-11T08:21:48.035Z,87
2019-05-11T08:22:48.150Z,87
2019-05-11T08:23:48.285Z,87
2019-05-11T08:24:48.085Z,87
2019-05-11T08:25:48.574Z,87
2019-05-11T08:26:47.979Z,87
2019-05-11T08:27:48.452Z,87
2019-05-11T08:28:48.552Z,87
2019-05-11T08:29:48.708Z,88
2019-05-11T08:30:48.580Z,88
2019-05-11T08:31:48.730Z,88
2019-05-11T08:32:49.259Z,88
2019-05-11T08:33:48.127Z,88
2019-05-11T08:34:49.035Z,88
2019-05-11T08:35:48.096Z,88
2019-05-11T08:36:48.060Z,88
2019-05-11T08:37:48.782Z,88
2019-05-11T08:38:48.357Z,88
2019-05-11T08:39:48.278Z,88
2019-05-11T08:40:48.615Z,87
2019-05-11T08:41:48.728Z,87
2019-05-11T08:42:48.375Z,87
2019-05-11T08:43:48.241Z,87
2019-05-11T08:44:48.376Z,87
2019-05-11T08:45:48.654Z,87
2019-05-11T08:46:48.190Z,87
2019-05-11T08:47:48.592Z,87
2019-05-11T08:48:48.304Z,87
2019-05-11T08:49:48.577Z,86
2019-05-11T08:50:48.907Z,86
2019-05-11T08:51:48.468Z,87
2019-05-11T08:52:48.506Z,87
2019-05-11T08:53:48.558Z,87
2019-05-11T08:54:48.812Z,88
2019-05-11T08:55:48.741Z,87
2019-05-11T08:56:48.785Z,87
2019-05-11T08:57:48.737Z,88
2019-05-11T08:58:49.269Z,88
2019-05-11T08:59:48.844Z,88
2019-05-11T09:00:48.875Z,87
2019-05-11T09:01:48.973Z,87
2019-05-11T09:02:50.611Z,87
2019-05-11T09:03:48.947Z,87
2019-05-11T09:04:49.225Z,86
2019-05-11T09:05:49.008Z,87
2019-05-11T09:06:49.056Z,87
2019-05-11T09:07:49.166Z,87
2019-05-11T09:08:49.479Z,87
2019-05-11T09:09:49.158Z,87
2019-05-11T09:10:49.297Z,87
2019-05-11T09:11:49.266Z,87
2019-05-11T09:12:51.542Z,87
2019-05-11T09:13:49.650Z,88
2019-05-11T09:14:49.391Z,88
2019-05-11T09:15:49.762Z,88
2019-05-11T09:16:49.509Z,89
2019-05-11T09:17:49.559Z,89
2019-05-11T09:18:49.571Z,88
2019-05-11T09:19:49.608Z,87
2019-05-11T09:20:49.695Z,86
2019-05-11T09:21:49.701Z,86
2019-05-11T09:22:49.745Z,86
2019-05-11T09:23:49.805Z,85
2019-05-11T09:24:49.922Z,85
2019-05-11T09:25:49.900Z,85
2019-05-11T09:26:49.917Z,85
2019-05-11T09:27:49.938Z,84
2019-05-11T09:28:49.987Z,82
2019-05-11T09:29:50.027Z,83
2019-05-11T09:30:50.070Z,82
2019-05-11T09:31:50.100Z,81
2019-05-11T09:32:50.126Z,81
2019-05-11T09:33:50.306Z,82
2019-05-11T09:34:50.189Z,81
2019-05-11T09:35:53.233Z,82
2019-05-11T09:36:50.285Z,81
2019-05-11T09:37:50.274Z,81
2019-05-11T09:38:50.307Z,81
2019-05-11T09:39:50.357Z,81
2019-05-11T09:40:50.347Z,80
2019-05-11T09:41:50.397Z,80
2019-05-11T09:42:50.397Z,81
2019-05-11T09:43:50.441Z,81
2019-05-11T09:44:50.447Z,82
2019-05-11T09:45:51.850Z,83
2019-05-11T09:46:50.486Z,82
2019-05-11T09:47:50.585Z,82
2019-05-11T09:48:50.502Z,81
2019-05-11T09:49:51.164Z,82
2019-05-11T09:50:52.893Z,82
2019-05-11T09:51:50.583Z,83
2019-05-11T09:52:51.218Z,84
2019-05-11T09:53:50.620Z,85
2019-05-11T09:54:50.652Z,85
2019-05-11T09:55:50.671Z,85
2019-05-11T09:56:58.188Z,85
2019-05-11T09:57:50.678Z,86
2019-05-11T09:58:51.005Z,86
2019-05-11T09:59:50.718Z,86
2019-05-11T10:00:50.918Z,86
2019-05-11T10:01:50.738Z,86
2019-05-11T10:02:50.740Z,86
2019-05-11T10:03:50.787Z,85
2019-05-11T10:04:50.769Z,85
2019-05-11T10:05:50.775Z,86
2019-05-11T10:06:50.770Z,86
2019-05-11T10:07:50.792Z,87
2019-05-11T10:08:50.808Z,87
2019-05-11T10:09:50.818Z,87
2019-05-11T10:10:50.805Z,87
2019-05-11T10:11:50.807Z,87
2019-05-11T10:12:52.902Z,87
2019-05-11T10:13:50.797Z,87
2019-05-11T10:14:50.885Z,87
2019-05-11T10:16:03.281Z,87
2019-05-11T10:16:50.917Z,87
2019-05-11T10:17:50.953Z,86
2019-05-11T10:18:51.027Z,86
2019-05-11T10:19:51.093Z,86
2019-05-11T10:20:51.163Z,86
2019-05-11T10:21:51.220Z,86
2019-05-11T10:22:51.214Z,86
2019-05-11T10:23:51.261Z,86
2019-05-11T10:24:51.342Z,86
2019-05-11T10:25:51.364Z,86
2019-05-11T10:26:51.404Z,86
2019-05-11T10:27:51.429Z,86
2019-05-11T10:28:51.509Z,86
2019-05-11T10:29:51.586Z,86
2019-05-11T10:30:51.550Z,87
2019-05-11T10:31:51.615Z,87
2019-05-11T10:32:51.642Z,87
2019-05-11T10:33:51.641Z,88
2019-05-11T10:34:51.736Z,88
2019-05-11T10:35:51.758Z,86
2019-05-11T10:36:51.819Z,85
2019-05-11T10:37:51.879Z,84
2019-05-11T10:38:51.949Z,85
2019-05-11T10:39:51.954Z,84
2019-05-11T10:40:54.478Z,83
2019-05-11T10:41:52.028Z,82
2019-05-11T10:42:52.059Z,82
2019-05-11T10:43:52.121Z,82
2019-05-11T10:44:52.170Z,81
2019-05-11T10:45:52.211Z,81
2019-05-11T10:46:52.251Z,81
2019-05-11T10:47:54.621Z,80
2019-05-11T10:48:52.355Z,80
2019-05-11T10:49:52.384Z,81
2019-05-11T10:50:52.444Z,81
2019-05-11T10:51:52.473Z,82
2019-05-11T10:52:52.541Z,82
2019-05-11T10:53:52.561Z,82
2019-05-11T10:54:52.594Z,81
2019-05-11T10:55:52.630Z,82
2019-05-11T10:56:52.664Z,83
2019-05-11T10:57:52.728Z,83
2019-05-11T10:58:52.775Z,81
2019-05-11T10:59:52.818Z,81
2019-05-11T11:00:52.867Z,82
2019-05-11T11:01:52.861Z,83
2019-05-11T11:02:52.954Z,83
2019-05-11T11:03:52.962Z,83
2019-05-11T11:04:52.988Z,84
2019-05-11T11:05:52.995Z,85
2019-05-11T11:06:53.137Z,84
2019-05-11T11:07:53.066Z,83
2019-05-11T11:08:53.072Z,82
2019-05-11T11:09:53.133Z,82
2019-05-11T11:10:53.158Z,82
2019-05-11T11:11:53.218Z,83
2019-05-11T11:12:53.241Z,84
2019-05-11T11:13:53.259Z,84
2019-05-11T11:14:53.317Z,84
2019-05-11T11:15:53.313Z,83
2019-05-11T11:16:53.338Z,83
2019-05-11T11:17:53.352Z,81
2019-05-11T11:18:53.445Z,81
2019-05-11T11:19:53.453Z,80
2019-05-11T11:20:53.462Z,79
2019-05-11T11:21:53.452Z,79
2019-05-11T11:22:53.497Z,80
2019-05-11T11:23:53.535Z,80
2019-05-11T11:24:53.580Z,80
2019-05-11T11:25:53.600Z,79
2019-05-11T11:26:53.632Z,80
2019-05-11T11:27:53.654Z,80
2019-05-11T11:28:53.674Z,80
2019-05-11T11:29:53.790Z,80
2019-05-11T11:30:53.712Z,80
2019-05-11T11:31:53.737Z,81
2019-05-11T11:32:53.754Z,81
2019-05-11T11:33:55.572Z,83
2019-05-11T11:34:53.812Z,82
2019-05-11T11:35:53.842Z,81
2019-05-11T11:36:53.870Z,80
2019-05-11T11:37:53.865Z,80
2019-05-11T11:38:53.859Z,81
2019-05-11T11:39:53.926Z,81
2019-05-11T11:40:53.893Z,81
2019-05-11T11:41:53.925Z,81
2019-05-11T11:42:53.925Z,82
2019-05-11T11:43:53.930Z,81
2019-05-11T11:44:53.948Z,81
2019-05-11T11:45:53.950Z,82
2019-05-11T11:46:55.243Z,82
2019-05-11T11:47:53.966Z,83
2019-05-11T11:48:53.948Z,82
2019-05-11T11:49:53.979Z,82
2019-05-11T11:50:53.974Z,82
2019-05-11T11:51:54.002Z,82
2019-05-11T11:52:53.979Z,82
2019-05-11T11:53:53.994Z,82
2019-05-11T11:54:53.988Z,83
2019-05-11T11:55:53.984Z,84
2019-05-11T11:56:54.005Z,83
2019-05-11T11:57:54.058Z,82
2019-05-11T11:58:54.148Z,83
2019-05-11T11:59:54.241Z,82
2019-05-11T12:00:54.232Z,82
2019-05-11T12:01:54.317Z,82
2019-05-11T12:02:54.363Z,82
2019-05-11T12:03:54.386Z,83
2019-05-11T12:04:54.411Z,84
2019-05-11T12:05:54.409Z,83
2019-05-11T12:06:54.512Z,82
2019-05-11T12:07:54.561Z,82
2019-05-11T12:08:54.596Z,82
2019-05-11T12:09:54.640Z,82
2019-05-11T12:10:54.699Z,83
2019-05-11T12:11:54.725Z,84
2019-05-11T12:12:54.788Z,85
2019-05-11T12:13:54.793Z,85
2019-05-11T12:14:54.863Z,85
2019-05-11T12:15:54.941Z,84
2019-05-11T12:17:04.759Z,83
2019-05-11T12:17:55.033Z,83
2019-05-11T12:18:55.031Z,83
2019-05-11T12:19:55.058Z,83
2019-05-11T12:20:55.114Z,83
2019-05-11T12:21:55.161Z,83
2019-05-11T12:22:55.168Z,82
2019-05-11T12:23:55.171Z,82
2019-05-11T12:24:55.205Z,83
2019-05-11T12:25:55.233Z,84
2019-05-11T12:26:55.250Z,86
2019-05-11T12:27:57.469Z,87
2019-05-11T12:28:57.537Z,87
2019-05-11T12:29:55.379Z,87
2019-05-11T12:30:55.377Z,86
2019-05-11T12:31:55.464Z,86
2019-05-11T12:32:57.536Z,86
2019-05-11T12:33:55.523Z,87
2019-05-11T12:34:55.579Z,87
2019-05-11T12:35:55.580Z,88
2019-05-11T12:36:57.882Z,87
2019-05-11T12:37:55.644Z,86
2019-05-11T12:38:57.866Z,85
2019-05-11T12:39:55.668Z,86
2019-05-11T12:40:57.737Z,87
2019-05-11T12:41:57.939Z,87
2019-05-11T12:42:55.817Z,86
2019-05-11T12:43:57.747Z,85
2019-05-11T12:44:57.820Z,84
2019-05-11T12:45:55.916Z,84
2019-05-11T12:46:58.048Z,85
2019-05-11T12:47:58.439Z,86
2019-05-11T12:48:57.161Z,86
2019-05-11T12:49:56.037Z,85
2019-05-11T12:50:56.080Z,84
2019-05-11T12:51:57.998Z,85
2019-05-11T12:52:58.690Z,85
2019-05-11T12:53:57.621Z,85
2019-05-11T12:54:58.194Z,86
2019-05-11T12:55:58.717Z,86
2019-05-11T12:56:57.898Z,86
2019-05-11T12:57:59.044Z,87
2019-05-11T12:58:58.179Z,87
2019-05-11T12:59:58.199Z,87
2019-05-11T13:00:58.462Z,87
2019-05-11T13:01:58.754Z,87
2019-05-11T13:02:58.533Z,87
2019-05-11T13:03:58.016Z,88
2019-05-11T13:04:58.408Z,88
2019-05-11T13:05:58.392Z,89
2019-05-11T13:06:58.101Z,89
2019-05-11T13:07:58.389Z,89
2019-05-11T13:08:58.564Z,89
2019-05-11T13:09:57.967Z,89
2019-05-11T13:10:58.394Z,89
2019-05-11T13:11:58.518Z,89
2019-05-11T13:12:58.820Z,89
2019-05-11T13:13:58.825Z,89
2019-05-11T13:14:57.988Z,89
2019-05-11T13:15:58.471Z,89
2019-05-11T13:16:58.714Z,89
2019-05-11T13:17:58.087Z,89
2019-05-11T13:18:57.635Z,89
2019-05-11T13:19:58.539Z,89
2019-05-11T13:20:58.570Z,89
2019-05-11T13:21:58.738Z,88
2019-05-11T13:22:58.669Z,88
2019-05-11T13:23:57.665Z,88
2019-05-11T13:24:58.803Z,88
2019-05-11T13:25:58.492Z,88
2019-05-11T13:26:56.780Z,88
2019-05-11T13:27:58.062Z,88
2019-05-11T13:28:58.377Z,89
2019-05-11T13:29:58.933Z,89
2019-05-11T13:30:57.903Z,87
2019-05-11T13:31:58.868Z,88
2019-05-11T13:32:57.897Z,89
2019-05-11T13:33:58.477Z,89
2019-05-11T13:34:58.359Z,89
2019-05-11T13:35:57.846Z,88
2019-05-11T13:36:57.473Z,87
2019-05-11T13:37:58.433Z,87
2019-05-11T13:38:58.693Z,86
2019-05-11T13:39:57.913Z,86
2019-05-11T13:40:58.990Z,86
2019-05-11T13:41:57.933Z,85
2019-05-11T13:42:58.101Z,85
2019-05-11T13:43:57.652Z,86
2019-05-11T13:44:58.355Z,84
2019-05-11T13:45:58.362Z,82
2019-05-11T13:46:58.556Z,81
2019-05-11T13:47:59.145Z,82
2019-05-11T13:48:57.899Z,80
2019-05-11T13:49:58.385Z,79
2019-05-11T13:50:58.183Z,78
2019-05-11T13:51:58.469Z,76
2019-05-11T13:52:58.340Z,76
2019-05-11T13:53:58.404Z,75
2019-05-11T13:54:58.432Z,75
2019-05-11T13:55:58.624Z,76
2019-05-11T13:56:57.789Z,77
2019-05-11T13:57:57.976Z,78
2019-05-11T13:59:00.261Z,78
2019-05-11T13:59:58.064Z,78
2019-05-11T14:00:58.452Z,78
2019-05-11T14:01:58.340Z,77
2019-05-11T14:02:58.420Z,76
2019-05-11T14:03:58.456Z,76
2019-05-11T14:04:58.503Z,77
2019-05-11T14:05:58.326Z,75
2019-05-11T14:06:58.536Z,74
2019-05-11T14:07:58.635Z,75
2019-05-11T14:08:58.870Z,75
2019-05-11T14:09:58.799Z,75
2019-05-11T14:10:58.319Z,77
2019-05-11T14:11:58.521Z,78
2019-05-11T14:12:58.407Z,79
2019-05-11T14:13:58.620Z,80
2019-05-11T14:14:58.534Z,79
2019-05-11T14:15:58.837Z,77